Latest Weather Observations for Horn Island

IDQ60801

Issued at 11:02 pm EST Tuesday 7 July 2015 (issued every 30 minutes, with the page automatically refreshed every 10 minutes)

About weather observations | Map of weather stations | Latest weather observations for QLD | Other Formats
Station Details ID: 027058 Name: HORN ISLAND Lat: -10.58 Lon: 142.29 Height: 4.0 m
Data from the previous 72 hours. | See also: Recent months at Horn Island
Date/Time
EST
Temp
°C
App
Temp
°C
Dew
Point
Rel
Hum
%
Delta-T
°C
Wind Press
QNH
hPa
Press
MSL
hPa
Rain
since 9 am
mm
Dir
 
Spd
km/h
Gust
km/h
Spd
kts
Gust
kts
07/11:00pm 24.0 24.4 19.1 74 3.1 ESE 15 19 8 10 1013.4 - 0.0
07/10:30pm 23.9 24.0 19.2 75 3.0 ESE 17 22 9 12 1013.7 - 0.0
07/10:00pm 24.0 24.1 19.1 74 3.1 ESE 17 24 9 13 1013.8 - 0.0
07/09:30pm 24.0 24.0 18.9 73 3.2 ESE 17 24 9 13 1013.8 - 0.0
07/09:00pm 24.0 24.0 18.9 73 3.2 SE 17 24 9 13 1013.5 1013.5 0.0
07/08:30pm 24.2 24.3 19.1 73 3.3 SE 17 26 9 14 1013.3 - 0.0
07/08:00pm 24.2 24.0 18.6 71 3.5 ESE 17 24 9 13 1013.0 - 0.0
07/07:30pm 24.3 23.6 18.7 71 3.6 ESE 20 28 11 15 1012.7 - 0.0
07/07:00pm 24.5 23.3 18.4 69 3.9 ESE 22 30 12 16 1012.5 - 0.0
07/06:30pm 24.7 23.6 18.6 69 3.9 ESE 22 30 12 16 1012.3 - 0.0
07/06:00pm 25.2 23.4 17.9 64 4.6 ESE 24 35 13 19 1011.9 1011.9 0.0
07/05:30pm 25.8 23.4 17.4 59 5.2 ESE 26 35 14 19 1011.7 - 0.0
07/05:00pm 26.3 23.7 16.8 56 5.9 ESE 26 37 14 20 1011.4 - 0.0
07/04:30pm 26.7 24.6 18.0 59 5.5 ESE 26 33 14 18 1011.3 - 0.0
07/04:00pm 26.9 24.6 17.7 57 5.8 E 26 35 14 19 1011.4 - 0.0
07/03:30pm 27.0 24.3 17.5 56 6.0 E 28 37 15 20 1011.4 - 0.0
07/03:00pm 27.4 24.4 17.8 55 6.1 E 30 39 16 21 1011.6 1011.6 0.0
07/02:30pm 27.1 24.1 16.7 53 6.5 E 28 37 15 20 1011.8 - 0.0
07/02:00pm 28.1 25.4 17.6 53 6.6 ESE 28 39 15 21 1012.0 - 0.0
07/01:30pm 27.9 24.8 16.5 50 7.1 ESE 28 37 15 20 1012.3 - 0.0
07/01:00pm 27.6 24.6 16.9 52 6.7 ESE 28 35 15 19 1012.7 - 0.0
07/12:30pm 27.8 24.9 17.0 51 6.8 ESE 28 41 15 22 1013.1 - 0.0
07/12:00pm 28.4 26.2 17.0 50 7.1 ESE 24 35 13 19 1013.5 1013.5 0.0
07/11:30am 26.9 23.9 16.8 54 6.3 SE 28 35 15 19 1013.9 - 0.0
07/11:00am 27.5 25.6 17.7 55 6.2 ESE 24 35 13 19 1014.2 - 0.0
07/10:30am 27.0 25.0 17.5 56 6.0 ESE 24 32 13 17 1014.6 - 0.0
07/10:00am 26.8 25.7 18.6 60 5.2 ESE 22 32 12 17 1014.7 - 0.0
07/09:30am 26.1 23.8 18.5 63 4.8 ESE 28 39 15 21 1014.9 - 0.0
07/09:00am 25.6 23.5 18.0 63 4.8 SE 26 35 14 19 1014.8 1014.8 0.0
07/08:30am 25.1 24.5 18.8 68 4.0 SE 20 28 11 15 1014.7 - 0.0
07/08:00am 24.6 24.2 18.8 70 3.7 SE 19 24 10 13 1014.4 - 0.0
07/07:30am 24.0 24.0 18.9 73 3.2 SE 17 22 9 12 1014.1 - 0.0
07/07:00am 23.6 24.0 18.9 75 3.0 ESE 15 22 8 12 1013.7 - 0.0
07/06:30am 23.7 23.5 18.6 73 3.2 ESE 17 22 9 12 1013.6 - 0.0
07/05:30am 23.8 23.2 18.9 74 3.1 SE 20 30 11 16 1013.2 - 0.0
07/05:00am 23.8 23.0 18.4 72 3.4 SE 20 30 11 16 1013.2 - 0.0
07/04:30am 23.7 23.1 18.4 72 3.3 SE 19 26 10 14 1012.9 - 0.0
07/04:00am 23.8 23.0 18.4 72 3.4 ESE 20 28 11 15 1012.8 - 0.0
07/03:30am 23.8 23.1 18.7 73 3.2 SE 20 28 11 15 1012.7 - 0.0
07/03:00am 23.9 23.3 18.8 73 3.2 SE 20 28 11 15 1012.8 1012.8 0.0
07/02:30am 23.6 24.1 19.3 77 2.7 SE 15 22 8 12 1013.1 - 0.0
07/02:00am 23.9 23.6 19.2 75 3.0 SE 19 24 10 13 1013.2 - 0.0
07/01:30am 23.9 24.5 19.4 76 2.9 SE 15 24 8 13 1013.4 - 0.0
07/01:00am 23.9 24.4 19.2 75 3.0 SE 15 19 8 10 1013.7 - 0.0
07/12:30am 24.1 23.6 19.0 73 3.2 SE 20 28 11 15 1013.7 - 0.0
07/12:00am 24.3 24.1 19.4 74 3.1 SE 19 30 10 16 1013.7 1013.7 0.0
 
Date/Time
EST
Temp
°C
App
Temp
°C
Dew
Point
Rel
Hum
%
Delta-T
°C
Wind Press
QNH
hPa
Press
MSL
hPa
Rain
since 9 am
mm
Dir
 
Spd
km/h
Gust
km/h
Spd
kts
Gust
kts
06/11:30pm 24.1 23.9 19.4 75 3.0 SE 19 26 10 14 1013.7 - 0.0
06/11:00pm 24.1 23.7 19.0 73 3.2 ESE 19 28 10 15 1013.6 - 0.0
06/10:30pm 24.2 23.2 18.8 72 3.4 ESE 22 33 12 18 1013.8 - 0.0
06/10:00pm 24.3 23.9 19.4 74 3.1 ESE 20 28 11 15 1013.9 - 0.0
06/09:30pm 24.3 23.9 19.4 74 3.1 ESE 20 28 11 15 1013.9 - 0.0
06/09:00pm 24.3 24.2 19.6 75 3.0 ESE 19 26 10 14 1013.8 1013.8 0.0
06/08:30pm 24.3 24.1 19.4 74 3.1 ESE 19 26 10 14 1013.6 - 0.0
06/08:00pm 24.4 24.0 19.0 72 3.4 ESE 19 28 10 15 1013.4 - 0.0
06/07:30pm 24.3 24.4 19.1 73 3.3 SE 17 26 9 14 1013.2 - 0.0
06/07:00pm 24.6 23.4 19.2 72 3.5 SE 24 32 13 17 1012.8 - 0.0
06/06:30pm 24.8 23.9 19.0 70 3.7 ESE 22 32 12 17 1012.5 - 0.0
06/06:00pm 25.2 24.2 18.9 68 4.0 ESE 22 32 12 17 1012.1 1012.1 0.0
06/05:30pm 25.8 24.3 18.5 64 4.6 ESE 24 35 13 19 1011.8 - 0.0
06/05:00pm 26.2 24.0 18.6 63 4.8 ESE 28 37 15 20 1011.6 - 0.0
06/04:30pm 26.8 24.1 17.6 57 5.8 ESE 28 37 15 20 1011.6 - 0.0
06/04:00pm 27.0 24.5 18.0 58 5.7 ESE 28 37 15 20 1011.3 - 0.0
06/03:30pm 27.6 25.2 18.3 57 5.9 ESE 28 35 15 19 1011.4 - 0.0
06/03:00pm 27.9 25.0 17.1 51 6.8 ESE 28 37 15 20 1011.4 1011.4 0.0
06/02:30pm 27.8 25.4 18.2 56 6.1 ESE 28 37 15 20 1011.6 - 0.0
06/02:00pm 28.1 26.3 17.9 54 6.5 ESE 24 37 13 20 1012.2 - 0.0
06/01:30pm 27.5 24.9 17.9 55 6.1 E 28 37 15 20 1012.7 - 0.0
06/01:00pm 27.5 24.8 18.5 58 5.7 ESE 30 39 16 21 1013.1 - 0.0
06/12:30pm 27.9 25.3 18.6 57 6.0 ESE 30 39 16 21 1013.5 - 0.0
06/12:00pm 27.8 25.5 19.3 60 5.5 ESE 30 37 16 20 1014.0 1014.0 0.0
06/11:30am 27.2 25.0 18.8 60 5.4 ESE 28 35 15 19 1014.4 - 0.0
06/11:00am 27.0 23.9 17.5 56 6.0 ESE 30 39 16 21 1014.7 - 0.0
06/10:30am 26.5 24.9 19.1 64 4.8 ESE 26 35 14 19 1015.0 - 0.0
06/10:00am 26.4 24.9 19.5 66 4.5 ESE 26 37 14 20 1015.3 - 0.0
06/09:30am 26.0 25.6 20.1 70 3.8 ESE 22 30 12 16 1015.4 - 0.0
06/09:00am 26.1 26.0 20.0 69 4.0 ESE 20 28 11 15 1015.2 1015.2 0.0
06/08:30am 24.5 23.8 19.6 74 3.2 ESE 22 32 12 17 1015.1 - 0.0
06/08:00am 23.8 25.0 19.9 79 2.5 SE 13 19 7 10 1014.8 - 0.0
06/07:30am 22.5 24.9 20.0 86 1.6 SSE 7 11 4 6 1014.5 - 0.0
06/07:00am 22.5 24.8 19.5 83 1.9 ESE 6 9 3 5 1014.5 - 0.0
06/06:30am 22.9 25.2 19.9 83 1.9 SE 7 11 4 6 1014.2 - 0.0
06/06:00am 22.9 24.0 19.7 82 2.1 SE 13 17 7 9 1013.9 1013.9 0.0
06/05:30am 22.9 23.5 19.5 81 2.2 SE 15 20 8 11 1013.7 - 0.0
06/05:00am 22.9 23.5 19.5 81 2.2 SE 15 20 8 11 1013.6 - 0.0
06/04:30am 23.1 22.9 19.7 81 2.2 ESE 20 26 11 14 1013.4 - 0.0
06/04:00am 23.1 22.8 19.5 80 2.3 ESE 20 26 11 14 1013.3 - 0.0
06/03:30am 23.2 22.9 19.6 80 2.3 ESE 20 26 11 14 1013.2 - 0.0
06/03:00am 23.2 23.4 19.4 79 2.4 SSE 17 26 9 14 1013.4 1013.4 0.0
06/02:30am 23.5 23.8 19.6 79 2.5 SSE 17 20 9 11 1013.5 - 0.0
06/02:00am 23.5 24.1 19.4 78 2.6 SSE 15 24 8 13 1013.7 - 0.0
06/01:30am 24.0 23.7 19.1 74 3.1 SE 19 26 10 14 1014.0 - 0.0
06/01:00am 24.1 23.3 19.2 74 3.1 SE 22 30 12 16 1014.1 - 0.0
06/12:30am 24.0 23.7 19.5 76 2.9 SE 20 28 11 15 1014.3 - 0.0
06/12:00am 24.0 23.9 19.5 76 2.9 SE 19 24 10 13 1014.5 1014.5 0.0
 
Date/Time
EST
Temp
°C
App
Temp
°C
Dew
Point
Rel
Hum
%
Delta-T
°C
Wind Press
QNH
hPa
Press
MSL
hPa
Rain
since 9 am
mm
Dir
 
Spd
km/h
Gust
km/h
Spd
kts
Gust
kts
05/11:30pm 24.1 23.9 19.4 75 3.0 SE 19 30 10 16 1014.7 - 0.0
05/11:00pm 24.2 24.5 19.5 75 3.0 SE 17 26 9 14 1014.8 - 0.0
05/10:30pm 24.0 24.3 19.5 76 2.9 SE 17 20 9 11 1014.8 - 0.0
05/10:00pm 24.3 24.1 19.4 74 3.1 SE 19 24 10 13 1014.7 - 0.0
05/09:30pm 24.3 24.0 19.1 73 3.3 SE 19 24 10 13 1014.5 - 0.0
05/09:00pm 24.4 24.1 19.5 74 3.1 SE 20 28 11 15 1014.4 1014.4 0.0
05/08:30pm 24.5 24.2 19.6 74 3.2 SE 20 28 11 15 1014.2 - 0.0
05/08:00pm 24.7 24.0 19.5 73 3.3 SE 22 30 12 16 1013.8 - 0.0
05/07:30pm 24.7 23.8 19.1 71 3.6 ESE 22 35 12 19 1013.4 - 0.0
05/07:00pm 24.8 24.0 19.2 71 3.6 ESE 22 30 12 16 1013.1 - 0.0
05/06:30pm 25.1 23.9 19.2 70 3.8 ESE 24 32 13 17 1013.0 - 0.0
05/06:00pm 25.4 24.6 19.3 69 3.9 ESE 22 32 12 17 1012.7 1012.7 0.0
05/05:30pm 26.1 24.5 19.2 65 4.4 ESE 26 37 14 20 1012.5 - 0.0
05/05:00pm 26.5 24.4 18.9 63 4.9 ESE 28 41 15 22 1012.5 - 0.0
05/04:30pm 26.9 24.2 18.5 60 5.4 ESE 30 43 16 23 1012.2 - 0.0
05/04:00pm 27.2 24.3 18.8 60 5.4 ESE 32 41 17 22 1012.2 - 0.0
05/03:30pm 27.3 24.5 19.1 61 5.3 ESE 32 44 17 24 1012.2 - 0.0
05/03:00pm 27.2 23.8 19.0 61 5.3 ESE 35 44 19 24 1012.4 1012.4 0.0
05/02:30pm 28.1 25.9 18.8 57 6.0 E 28 41 15 22 1012.6 - 0.0
05/02:00pm 27.6 25.2 19.1 59 5.5 ESE 30 43 16 23 1012.9 - 0.0
05/01:30pm 27.8 25.1 19.3 60 5.5 ESE 32 41 17 22 1013.4 - 0.0
05/01:00pm 27.5 24.7 19.0 59 5.5 ESE 32 43 17 23 1013.7 - 0.0
05/12:30pm 27.2 24.6 19.5 62 5.0 ESE 32 41 17 22 1014.2 - 0.0
05/12:00pm 27.4 24.6 19.5 62 5.1 ESE 33 43 18 23 1014.6 1014.6 0.0
05/11:30am 27.3 24.1 19.4 62 5.1 ESE 35 44 19 24 1014.8 - 0.0
05/11:00am 27.4 25.8 20.7 67 4.4 ESE 30 41 16 22 1014.9 - 0.0
05/10:30am 26.9 24.1 19.5 64 4.8 ESE 33 43 18 23 1015.1 - 0.0
05/10:00am 27.4 26.0 20.5 66 4.5 ESE 28 41 15 22 1015.1 - 0.0
05/09:30am 26.6 24.8 19.5 65 4.6 ESE 28 43 15 23 1015.1 - 0.0
05/09:00am 26.0 24.5 20.3 71 3.7 ESE 28 39 15 21 1015.1 1015.1 0.0
05/08:30am 25.6 25.0 20.6 74 3.3 ESE 24 35 13 19 1014.8 - 0.0
05/08:00am 24.7 25.0 20.4 77 2.8 SE 19 26 10 14 1014.5 - 0.0
05/07:30am 24.3 24.6 20.4 79 2.5 SE 19 24 10 13 1014.4 - 0.0
05/07:00am 24.3 24.7 20.6 80 2.4 ESE 19 28 10 15 1014.1 - 0.0
05/06:30am 24.1 24.6 20.8 82 2.2 SE 19 28 10 15 1013.6 - 0.0
05/06:00am 24.0 24.5 20.9 83 2.0 SE 19 24 10 13 1013.4 1013.4 0.0
05/05:30am 23.9 24.5 21.0 84 1.9 SE 19 26 10 14 1013.3 - 0.0
05/05:00am 23.9 24.6 20.4 81 2.3 SSE 17 24 9 13 1013.1 - 0.0
05/04:30am 24.0 24.5 20.9 83 2.0 SE 19 26 10 14 1013.0 - 0.0
05/04:00am 23.9 24.4 20.8 83 2.0 SE 19 26 10 14 1012.9 - 0.0
05/03:30am 24.0 24.1 19.9 78 2.6 SE 19 26 10 14 1012.8 - 0.0
05/03:00am 23.9 24.0 20.4 81 2.3 SE 20 30 11 16 1012.9 1012.9 0.0
05/02:30am 23.8 24.5 20.5 82 2.1 ESE 17 24 9 13 1013.1 - 0.0
05/02:00am 24.4 23.5 19.9 76 2.9 ESE 24 33 13 18 1013.2 - 0.0
05/01:30am 23.9 23.9 20.2 80 2.4 ESE 20 32 11 17 1013.6 - 0.0
05/01:00am 24.1 24.0 20.8 82 2.2 ESE 22 30 12 16 1013.9 - 0.0
05/12:30am 24.4 24.5 20.3 78 2.7 SE 20 28 11 15 1013.8 - 0.0
05/12:00am 24.3 24.5 20.2 78 2.7 ESE 19 28 10 15 1014.0 1014.0 0.0
 
Date/Time
EST
Temp
°C
App
Temp
°C
Dew
Point
Rel
Hum
%
Delta-T
°C
Wind Press
QNH
hPa
Press
MSL
hPa
Rain
since 9 am
mm
Dir
 
Spd
km/h
Gust
km/h
Spd
kts
Gust
kts
04/11:30pm 24.3 24.6 20.4 79 2.5 SE 19 26 10 14 1014.2 - 0.0

Other Formats:

Comma delimited format used in spreadsheet applications
http://www.bom.gov.au/fwo/IDQ60801/IDQ60801.94174.axf

JavaScript Object Notation format (JSON) in row-major order
http://www.bom.gov.au/fwo/IDQ60801/IDQ60801.94174.json